Time;durP1;ratioP1;P1;durP2;ratioP2;P2;SDS_P1;SDS_P2;PMS_P1;PMS_P2;Temp;Humidity;BMP_temperature;BMP_pressure;BME280_temperature;BME280_humidity;BME280_pressure;Samples;Min_cycle;Max_cycle;Signal;HPM_P1;HPM_P2
2024/01/18 00:02:22;;;;;;;;;;;0.10;99.90;;;;;;5044551;28;19928;-74
2024/01/18 00:04:48;;;;;;;;;;;-0.60;99.90;;;;;;5044190;28;19975;-74
2024/01/18 00:07:14;;;;;;;;;;;-0.70;99.90;;;;;;5045517;28;19921;-74
2024/01/18 00:09:39;;;;;;;;;;;-0.70;99.90;;;;;;5046567;28;20269;-73
2024/01/18 00:12:05;;;;;;;;;;;-0.70;99.90;;;;;;5047363;28;19921;-75
2024/01/18 00:14:30;;;;;;;;;;;-0.80;99.90;;;;;;5043913;28;19931;-75
2024/01/18 00:16:56;;;;;;;;;;;-0.80;99.90;;;;;;5045869;28;20495;-75
2024/01/18 00:19:23;;;;;;;;;;;-0.80;99.90;;;;;;5048618;28;20494;-74
2024/01/18 00:21:48;;;;;;;;;;;-0.80;99.90;;;;;;5044049;28;19924;-74
2024/01/18 00:24:14;;;;;;;;;;;-0.90;99.90;;;;;;5045524;28;20479;-75
2024/01/18 00:26:39;;;;;;;;;;;-1.00;99.90;;;;;;5043620;28;19979;-76
2024/01/18 00:29:05;;;;;;;;;;;-1.00;99.90;;;;;;5044100;28;19944;-75
2024/01/18 00:31:30;;;;;;;;;;;-1.00;99.90;;;;;;5045359;28;19928;-75
2024/01/18 00:33:59;;;;;;;;;;;-1.00;99.90;;;;;;5046561;28;20040;-75
2024/01/18 00:36:25;;;;;;;;;;;-1.00;99.90;;;;;;5046206;28;19928;-75
2024/01/18 00:38:50;;;;;;;;;;;-0.90;99.90;;;;;;5045037;28;19924;-76
2024/01/18 00:41:16;;;;;;;;;;;-0.90;99.90;;;;;;5044315;28;20018;-75
2024/01/18 00:43:41;;;;;;;;;;;-0.60;99.90;;;;;;5043497;28;19924;-75
2024/01/18 00:46:07;;;;;;;;;;;-0.90;99.90;;;;;;5046905;28;20418;-74
2024/01/18 00:48:32;;;;;;;;;;;-0.90;99.90;;;;;;5048214;28;20292;-75
2024/01/18 00:50:58;;;;;;;;;;;-1.00;99.90;;;;;;5044587;28;19929;-75
2024/01/18 00:53:23;;;;;;;;;;;-0.90;99.90;;;;;;5045433;28;20015;-74
2024/01/18 00:55:49;;;;;;;;;;;-0.90;99.90;;;;;;5044187;28;19921;-75
2024/01/18 00:58:15;;;;;;;;;;;-0.90;99.90;;;;;;5043703;28;19921;-74
2024/01/18 01:00:40;;;;;;;;;;;-1.00;99.90;;;;;;5045765;28;19924;-75
2024/01/18 01:03:06;;;;;;;;;;;-1.00;99.90;;;;;;5044489;28;19920;-76
2024/01/18 01:05:31;;;;;;;;;;;-1.00;99.90;;;;;;5042130;28;20289;-75
2024/01/18 01:07:57;;;;;;;;;;;-1.00;99.90;;;;;;5041729;28;19964;-75
2024/01/18 01:10:22;;;;;;;;;;;-1.00;99.90;;;;;;5044360;28;19971;-75
2024/01/18 01:12:48;;;;;;;;;;;-1.00;99.90;;;;;;5054900;28;19948;-75
2024/01/18 01:15:13;;;;;;;;;;;-1.30;99.90;;;;;;5046681;28;19921;-75
2024/01/18 01:17:43;;;;;;;;;;;-1.10;99.90;;;;;;5057659;28;20299;-75
2024/01/18 01:20:11;;;;;;;;;;;-1.10;99.90;;;;;;5058495;28;20374;-75
2024/01/18 01:22:36;;;;;;;;;;;-1.10;99.90;;;;;;5058273;28;19916;-75
2024/01/18 01:25:02;;;;;;;;;;;-1.20;99.90;;;;;;5078220;28;20272;-75
2024/01/18 01:27:28;;;;;;;;;;;-1.20;99.90;;;;;;5048326;28;19923;-75
2024/01/18 01:29:53;;;;;;;;;;;-1.20;99.90;;;;;;5049513;28;20029;-75
2024/01/18 01:32:19;;;;;;;;;;;-0.90;99.90;;;;;;5051582;28;20365;-74
2024/01/18 01:34:44;;;;;;;;;;;-1.20;99.90;;;;;;5045204;28;20406;-75
2024/01/18 01:37:10;;;;;;;;;;;-1.20;99.90;;;;;;5066077;28;19920;-75
2024/01/18 01:39:35;;;;;;;;;;;-1.20;99.90;;;;;;5051753;28;20612;-75
2024/01/18 01:42:03;;;;;;;;;;;-0.20;99.90;;;;;;5064306;28;19927;-75
2024/01/18 01:44:28;;;;;;;;;;;-1.20;99.90;;;;;;5051477;28;19932;-75
2024/01/18 01:46:54;;;;;;;;;;;-1.20;99.90;;;;;;5058434;28;20367;-75
2024/01/18 01:49:20;;;;;;;;;;;-1.20;99.90;;;;;;5065927;28;19966;-75
2024/01/18 01:51:49;;;;;;;;;;;-1.20;99.90;;;;;;5061566;28;19921;-75
2024/01/18 01:54:16;;;;;;;;;;;-1.10;99.90;;;;;;5056020;28;19920;-75
2024/01/18 01:56:43;;;;;;;;;;;-1.10;99.90;;;;;;5069533;28;19920;-75
2024/01/18 01:59:09;;;;;;;;;;;-2.10;99.90;;;;;;5063504;28;20260;-75
2024/01/18 02:01:35;;;;;;;;;;;-1.00;99.90;;;;;;5076847;28;20011;-75
2024/01/18 02:04:01;;;;;;;;;;;-0.90;99.90;;;;;;5055425;28;19925;-76
2024/01/18 02:06:27;;;;;;;;;;;-0.80;99.90;;;;;;5070665;28;19916;-75
2024/01/18 02:08:53;;;;;;;;;;;-0.80;99.90;;;;;;5049135;28;19920;-75
2024/01/18 02:11:18;;;;;;;;;;;-0.70;99.90;;;;;;5050854;28;19921;-75
2024/01/18 02:13:44;;;;;;;;;;;0.10;99.90;;;;;;5051782;28;19917;-75
2024/01/18 02:16:10;;;;;;;;;;;0.90;99.90;;;;;;5053788;28;19920;-75
2024/01/18 02:18:36;;;;;;;;;;;-0.70;99.90;;;;;;5080446;28;19920;-76
2024/01/18 02:21:03;;;;;;;;;;;-0.10;99.90;;;;;;5056361;28;19920;-76
2024/01/18 02:23:29;;;;;;;;;;;-0.50;99.90;;;;;;5054799;28;20015;-75
2024/01/18 02:25:55;;;;;;;;;;;-0.80;99.90;;;;;;5067749;28;19971;-75
2024/01/18 02:28:20;;;;;;;;;;;-0.80;99.90;;;;;;5050832;28;20326;-75
2024/01/18 02:30:46;;;;;;;;;;;-0.80;99.90;;;;;;5059633;28;20316;-75
2024/01/18 02:33:11;;;;;;;;;;;-0.80;99.90;;;;;;5071365;28;19924;-75
2024/01/18 02:35:37;;;;;;;;;;;-0.90;99.90;;;;;;5071557;28;20360;-75
2024/01/18 02:38:03;;;;;;;;;;;-0.90;99.90;;;;;;5082614;28;19970;-76
2024/01/18 02:40:29;;;;;;;;;;;-0.90;99.90;;;;;;5048669;28;19936;-75
2024/01/18 02:42:54;;;;;;;;;;;-0.90;99.90;;;;;;5039498;28;19959;-75
2024/01/18 02:45:20;;;;;;;;;;;-0.90;99.90;;;;;;5049964;28;19927;-75
2024/01/18 02:47:46;;;;;;;;;;;-1.00;99.90;;;;;;5052922;28;20172;-75
2024/01/18 02:50:11;;;;;;;;;;;-1.00;99.90;;;;;;5054001;28;20011;-75
2024/01/18 02:52:38;;;;;;;;;;;-1.00;99.90;;;;;;5071928;28;19920;-75
2024/01/18 02:55:05;;;;;;;;;;;-1.00;99.90;;;;;;5042795;28;19924;-75
2024/01/18 02:57:31;;;;;;;;;;;-1.00;99.90;;;;;;5049463;28;20038;-76
2024/01/18 02:59:56;;;;;;;;;;;-1.00;99.90;;;;;;5042459;28;20013;-75
2024/01/18 03:02:22;;;;;;;;;;;-1.00;99.90;;;;;;5067979;28;20352;-75
2024/01/18 03:04:47;;;;;;;;;;;-1.00;99.90;;;;;;5046303;28;19921;-75
2024/01/18 03:07:13;;;;;;;;;;;-1.00;99.90;;;;;;5061944;28;19920;-75
2024/01/18 03:09:38;;;;;;;;;;;-1.10;99.90;;;;;;5044899;28;20191;-76
2024/01/18 03:12:04;;;;;;;;;;;-1.20;99.90;;;;;;5069009;28;19969;-75
2024/01/18 03:14:31;;;;;;;;;;;-1.20;99.90;;;;;;5051676;28;19928;-75
2024/01/18 03:16:56;;;;;;;;;;;-1.20;99.90;;;;;;5065712;28;19974;-75
2024/01/18 03:19:22;;;;;;;;;;;-1.20;99.90;;;;;;5043460;28;19929;-75
2024/01/18 03:21:47;;;;;;;;;;;-1.20;99.90;;;;;;5046363;28;19921;-76
2024/01/18 03:24:13;;;;;;;;;;;-1.20;99.90;;;;;;5046318;28;19920;-76
2024/01/18 03:26:38;;;;;;;;;;;-1.10;99.90;;;;;;5038454;28;20431;-76
2024/01/18 03:29:05;;;;;;;;;;;-1.20;99.90;;;;;;5045076;28;20454;-76
2024/01/18 03:31:30;;;;;;;;;;;-1.20;99.90;;;;;;5070920;28;19924;-76
2024/01/18 03:33:56;;;;;;;;;;;-1.20;99.90;;;;;;5065257;28;19927;-75
2024/01/18 03:36:22;;;;;;;;;;;-1.20;99.90;;;;;;5063672;28;20009;-76
2024/01/18 03:38:47;;;;;;;;;;;-1.20;99.90;;;;;;5049068;28;19921;-76
2024/01/18 03:41:16;;;;;;;;;;;-1.10;99.90;;;;;;5046901;28;19924;-77
2024/01/18 03:43:41;;;;;;;;;;;-1.30;99.90;;;;;;5052023;28;19920;-76
2024/01/18 03:46:07;;;;;;;;;;;-1.30;99.90;;;;;;5050720;28;19929;-76
2024/01/18 03:48:33;;;;;;;;;;;-0.30;99.90;;;;;;5048160;28;19943;-74
2024/01/18 03:50:58;;;;;;;;;;;-1.10;99.90;;;;;;5056422;28;19974;-77
2024/01/18 03:53:24;;;;;;;;;;;-1.00;99.90;;;;;;5048207;28;19920;-76
2024/01/18 03:55:50;;;;;;;;;;;-0.60;99.90;;;;;;5046881;28;19960;-77
2024/01/18 03:58:15;;;;;;;;;;;0.00;99.90;;;;;;5043648;28;19927;-76
2024/01/18 04:00:41;;;;;;;;;;;-0.80;99.90;;;;;;5049165;28;19988;-76
2024/01/18 04:03:06;;;;;;;;;;;-0.70;99.90;;;;;;5067349;28;19924;-76
2024/01/18 04:05:32;;;;;;;;;;;-0.70;99.90;;;;;;5063592;28;20568;-75
2024/01/18 04:07:57;;;;;;;;;;;-0.60;99.90;;;;;;5047373;28;19924;-75
2024/01/18 04:10:23;;;;;;;;;;;-0.20;99.90;;;;;;5064140;28;19924;-78
2024/01/18 04:12:49;;;;;;;;;;;0.50;99.90;;;;;;5046147;28;19925;-79
2024/01/18 04:15:14;;;;;;;;;;;-0.40;99.90;;;;;;5054944;28;19928;-79
2024/01/18 04:17:40;;;;;;;;;;;-0.30;99.90;;;;;;5044715;28;20386;-78
2024/01/18 04:20:06;;;;;;;;;;;-0.30;99.90;;;;;;5040452;28;20007;-78
2024/01/18 04:22:34;;;;;;;;;;;-0.20;99.90;;;;;;5037992;28;20393;-78
2024/01/18 04:25:00;;;;;;;;;;;-0.20;99.90;;;;;;5046853;28;20291;-78
2024/01/18 04:27:27;;;;;;;;;;;-0.20;99.90;;;;;;5050652;28;19928;-78
2024/01/18 04:29:53;;;;;;;;;;;-0.10;99.90;;;;;;5048271;28;19924;-77
2024/01/18 04:32:19;;;;;;;;;;;-0.10;99.90;;;;;;5051038;28;19931;-77
2024/01/18 04:34:44;;;;;;;;;;;0.90;99.90;;;;;;5047744;28;19921;-77
2024/01/18 04:37:11;;;;;;;;;;;-0.10;99.90;;;;;;5069360;28;20325;-78
2024/01/18 04:39:36;;;;;;;;;;;-0.10;99.90;;;;;;5051264;28;19985;-77
2024/01/18 04:42:02;;;;;;;;;;;-0.10;99.90;;;;;;5044786;28;19932;-78
2024/01/18 04:44:28;;;;;;;;;;;-0.10;99.90;;;;;;5068499;28;20283;-77
2024/01/18 04:46:53;;;;;;;;;;;-0.10;99.90;;;;;;5049737;28;19920;-77
2024/01/18 04:49:19;;;;;;;;;;;-0.20;99.90;;;;;;5048412;28;19955;-77
2024/01/18 04:51:44;;;;;;;;;;;-0.30;99.90;;;;;;5060048;28;19921;-78
2024/01/18 04:54:10;;;;;;;;;;;-0.30;99.90;;;;;;5053148;28;19920;-78
2024/01/18 04:56:37;;;;;;;;;;;0.80;99.90;;;;;;5048665;28;20389;-77
2024/01/18 04:59:03;;;;;;;;;;;-0.30;99.90;;;;;;5051362;28;20638;-77
2024/01/18 05:01:29;;;;;;;;;;;-0.40;99.90;;;;;;5058128;28;19974;-78
2024/01/18 05:03:54;;;;;;;;;;;-0.40;99.90;;;;;;5060206;28;19986;-78
2024/01/18 05:06:20;;;;;;;;;;;-0.40;99.90;;;;;;5039192;28;19920;-78
2024/01/18 05:08:45;;;;;;;;;;;-0.50;99.90;;;;;;5059350;28;19920;-78
2024/01/18 05:11:11;;;;;;;;;;;-0.60;99.90;;;;;;5048465;28;19924;-76
2024/01/18 05:13:36;;;;;;;;;;;-0.60;99.90;;;;;;5048607;28;19920;-77
2024/01/18 05:16:02;;;;;;;;;;;-1.50;99.90;;;;;;5041499;28;19970;-77
2024/01/18 05:18:28;;;;;;;;;;;-0.60;99.90;;;;;;5049353;28;20645;-76
2024/01/18 05:20:53;;;;;;;;;;;-0.60;99.90;;;;;;5048249;28;20029;-76
2024/01/18 05:23:19;;;;;;;;;;;-0.60;99.90;;;;;;5067857;28;19927;-76
2024/01/18 05:25:44;;;;;;;;;;;-0.60;99.90;;;;;;5072540;28;20070;-76
2024/01/18 05:28:11;;;;;;;;;;;-0.50;99.90;;;;;;5043120;28;20003;-76
2024/01/18 05:30:37;;;;;;;;;;;-0.50;99.90;;;;;;5043169;28;19924;-76
2024/01/18 05:33:04;;;;;;;;;;;-0.50;99.90;;;;;;5072560;28;20221;-76
2024/01/18 05:35:29;;;;;;;;;;;-0.50;99.90;;;;;;5053943;28;19920;-77
2024/01/18 05:37:55;;;;;;;;;;;-0.40;99.90;;;;;;5050369;28;19921;-76
2024/01/18 05:40:22;;;;;;;;;;;-0.50;99.90;;;;;;5064460;28;19928;-76
2024/01/18 05:42:48;;;;;;;;;;;-0.50;99.90;;;;;;5055649;28;19921;-76
2024/01/18 05:45:13;;;;;;;;;;;-0.50;99.90;;;;;;5069059;28;19966;-76
2024/01/18 05:47:39;;;;;;;;;;;-0.60;99.90;;;;;;5045770;28;19920;-76
2024/01/18 05:50:06;;;;;;;;;;;-0.60;99.90;;;;;;5042212;28;19924;-76
2024/01/18 05:52:31;;;;;;;;;;;-0.60;99.90;;;;;;5053562;28;19920;-76
2024/01/18 05:54:58;;;;;;;;;;;-0.60;99.90;;;;;;5068955;28;19920;-76
2024/01/18 05:57:24;;;;;;;;;;;-0.60;99.90;;;;;;5040109;28;19925;-75
2024/01/18 05:59:50;;;;;;;;;;;-0.60;99.90;;;;;;5041272;28;19994;-76
2024/01/18 06:02:15;;;;;;;;;;;-0.60;99.90;;;;;;5063476;28;19930;-77
2024/01/18 06:04:41;;;;;;;;;;;-0.60;99.90;;;;;;5054087;28;19928;-77
2024/01/18 06:07:06;;;;;;;;;;;-0.60;99.90;;;;;;5048110;28;19963;-76
2024/01/18 06:09:32;;;;;;;;;;;-0.60;99.90;;;;;;5053363;28;19931;-77
2024/01/18 06:11:57;;;;;;;;;;;-0.50;99.90;;;;;;5053796;28;20501;-76
2024/01/18 06:14:23;;;;;;;;;;;-0.50;99.90;;;;;;5054826;28;19921;-76
2024/01/18 06:16:48;;;;;;;;;;;0.00;99.90;;;;;;5049823;28;19920;-77
2024/01/18 06:19:14;;;;;;;;;;;-0.30;99.90;;;;;;5052581;28;19974;-77
2024/01/18 06:21:41;;;;;;;;;;;-0.40;99.90;;;;;;5055949;28;20553;-77
2024/01/18 06:24:07;;;;;;;;;;;-0.60;99.90;;;;;;5051047;28;19982;-77
2024/01/18 06:26:32;;;;;;;;;;;-0.60;99.90;;;;;;5062716;28;20364;-77
2024/01/18 06:28:58;;;;;;;;;;;-0.60;99.90;;;;;;5055776;28;19982;-77
2024/01/18 06:31:26;;;;;;;;;;;-0.70;99.90;;;;;;5069216;28;20451;-77
2024/01/18 06:33:56;;;;;;;;;;;-0.70;99.90;;;;;;5051127;28;20045;-77
2024/01/18 06:36:22;;;;;;;;;;;-0.70;99.90;;;;;;5049028;28;20367;-76
2024/01/18 06:38:49;;;;;;;;;;;-0.70;99.90;;;;;;5047328;28;19920;-77
2024/01/18 06:41:15;;;;;;;;;;;-0.70;99.90;;;;;;5052211;28;20019;-77
2024/01/18 06:43:40;;;;;;;;;;;-0.80;99.90;;;;;;5040325;28;20441;-77
2024/01/18 06:46:18;;;;;;;;;;;-0.80;99.90;;;;;;5066143;28;20019;-77
2024/01/18 06:48:50;;;;;;;;;;;-0.40;99.90;;;;;;5037212;28;19920;-77
2024/01/18 06:51:16;;;;;;;;;;;-0.90;99.90;;;;;;5040123;28;20023;-77
2024/01/18 06:53:42;;;;;;;;;;;-0.90;99.90;;;;;;5052682;28;20003;-76
2024/01/18 06:56:12;;;;;;;;;;;-0.90;99.90;;;;;;5048134;28;19999;-76
2024/01/18 06:58:37;;;;;;;;;;;0.20;99.90;;;;;;5048138;28;19921;-77
2024/01/18 07:01:03;;;;;;;;;;;-1.00;99.90;;;;;;5050202;28;20492;-76
2024/01/18 07:03:32;;;;;;;;;;;-1.00;99.90;;;;;;5066690;28;19924;-76
2024/01/18 07:05:58;;;;;;;;;;;-1.00;99.90;;;;;;5052154;28;19928;-78
2024/01/18 07:08:24;;;;;;;;;;;-1.00;99.90;;;;;;5045107;28;20276;-78
2024/01/18 07:10:50;;;;;;;;;;;-0.90;99.90;;;;;;5038833;28;19936;-78
2024/01/18 07:13:15;;;;;;;;;;;-0.90;99.90;;;;;;5050718;28;20003;-76
2024/01/18 07:15:41;;;;;;;;;;;-0.80;99.90;;;;;;5049445;28;19928;-77
2024/01/18 07:18:06;;;;;;;;;;;-0.70;99.90;;;;;;5038915;28;19929;-78
2024/01/18 07:20:32;;;;;;;;;;;-0.50;99.90;;;;;;5048418;28;19928;-78
2024/01/18 07:22:57;;;;;;;;;;;-0.60;99.90;;;;;;5041941;28;19996;-77
2024/01/18 07:25:23;;;;;;;;;;;-0.60;99.90;;;;;;5040510;28;19921;-77
2024/01/18 07:27:48;;;;;;;;;;;-0.50;99.90;;;;;;5039893;28;19920;-77
2024/01/18 07:30:14;;;;;;;;;;;-0.50;99.90;;;;;;5047155;28;19928;-77
2024/01/18 07:32:40;;;;;;;;;;;-0.50;99.90;;;;;;5038975;28;19929;-78
2024/01/18 07:35:05;;;;;;;;;;;-0.50;99.90;;;;;;5033899;28;20067;-76
2024/01/18 07:37:31;;;;;;;;;;;-0.50;99.90;;;;;;5056396;28;20046;-77
2024/01/18 07:39:57;;;;;;;;;;;-0.50;99.90;;;;;;5041659;28;19924;-77
2024/01/18 07:42:22;;;;;;;;;;;-0.50;99.90;;;;;;5040760;28;19943;-76
2024/01/18 07:44:48;;;;;;;;;;;-0.50;99.90;;;;;;5041007;28;19928;-76
2024/01/18 07:47:13;;;;;;;;;;;-0.50;99.90;;;;;;5047432;28;19932;-76
2024/01/18 07:49:45;;;;;;;;;;;-0.50;99.90;;;;;;5047757;28;19921;-77
2024/01/18 07:52:12;;;;;;;;;;;-0.50;99.90;;;;;;5039641;28;19939;-76
2024/01/18 07:54:38;;;;;;;;;;;-0.30;99.90;;;;;;5044104;28;19939;-77
2024/01/18 07:57:06;;;;;;;;;;;-0.40;99.90;;;;;;5046908;28;20427;-76
2024/01/18 07:59:32;;;;;;;;;;;1.00;99.90;;;;;;5041377;28;20145;-77
2024/01/18 08:01:57;;;;;;;;;;;-0.40;99.90;;;;;;5046365;28;20001;-77
2024/01/18 08:04:23;;;;;;;;;;;-0.10;99.90;;;;;;5044376;28;20352;-77
2024/01/18 08:06:48;;;;;;;;;;;-0.40;99.90;;;;;;5040987;28;20341;-76
2024/01/18 08:09:15;;;;;;;;;;;-0.40;99.90;;;;;;5035997;28;19974;-78
2024/01/18 08:11:40;;;;;;;;;;;-0.40;99.90;;;;;;5046383;28;19924;-77
2024/01/18 08:14:06;;;;;;;;;;;-0.40;99.90;;;;;;5045483;28;20312;-77
2024/01/18 08:16:33;;;;;;;;;;;-0.40;99.90;;;;;;5034830;28;20006;-77
2024/01/18 08:19:00;;;;;;;;;;;-0.40;99.90;;;;;;5040210;28;19920;-77
2024/01/18 08:21:27;;;;;;;;;;;-0.40;99.90;;;;;;5047854;28;19920;-77
2024/01/18 08:23:53;;;;;;;;;;;-0.40;99.90;;;;;;5041072;28;20287;-79
2024/01/18 08:26:20;;;;;;;;;;;0.00;99.90;;;;;;5046487;28;20012;-78
2024/01/18 08:28:46;;;;;;;;;;;-0.40;99.90;;;;;;5047292;28;19924;-76
2024/01/18 08:31:12;;;;;;;;;;;-1.60;99.90;;;;;;5039743;28;19936;-77
2024/01/18 08:33:37;;;;;;;;;;;-0.40;99.90;;;;;;5044445;28;19931;-76
2024/01/18 08:36:03;;;;;;;;;;;-0.30;99.90;;;;;;5045856;28;20353;-77
2024/01/18 08:38:29;;;;;;;;;;;-0.30;99.90;;;;;;5040518;28;19927;-78
2024/01/18 08:40:58;;;;;;;;;;;-0.20;99.90;;;;;;5040291;28;19935;-76
2024/01/18 08:43:27;;;;;;;;;;;-0.10;99.90;;;;;;5044276;28;19916;-75
2024/01/18 08:45:56;;;;;;;;;;;-0.10;99.90;;;;;;5044141;28;20398;-76
2024/01/18 08:48:22;;;;;;;;;;;0.00;99.90;;;;;;5043237;28;19920;-75
2024/01/18 08:50:47;;;;;;;;;;;0.00;99.90;;;;;;5043798;28;20333;-76
2024/01/18 08:53:13;;;;;;;;;;;0.10;99.90;;;;;;5040005;28;19921;-75
2024/01/18 08:55:40;;;;;;;;;;;0.10;99.90;;;;;;5044917;28;19933;-73
2024/01/18 08:58:06;;;;;;;;;;;0.10;99.90;;;;;;5047136;28;20287;-75
2024/01/18 09:00:32;;;;;;;;;;;0.10;99.90;;;;;;5044227;28;19935;-75
2024/01/18 09:02:58;;;;;;;;;;;0.10;99.90;;;;;;5044186;28;19996;-75
2024/01/18 09:05:23;;;;;;;;;;;0.10;99.90;;;;;;5057413;28;20011;-74
2024/01/18 09:07:49;;;;;;;;;;;0.10;99.90;;;;;;5049371;28;20027;-76
2024/01/18 09:10:15;;;;;;;;;;;0.20;99.90;;;;;;5046320;28;19947;-76
2024/01/18 09:12:41;;;;;;;;;;;0.20;99.90;;;;;;5044385;28;19921;-75
2024/01/18 09:15:07;;;;;;;;;;;0.30;99.90;;;;;;5043236;28;19974;-76
2024/01/18 09:17:32;;;;;;;;;;;0.30;99.90;;;;;;5048799;28;20384;-76
2024/01/18 09:19:58;;;;;;;;;;;0.30;99.90;;;;;;5048157;28;20431;-77
2024/01/18 09:22:23;;;;;;;;;;;0.40;99.90;;;;;;5044268;28;20257;-76
2024/01/18 09:24:49;;;;;;;;;;;0.40;99.90;;;;;;5045842;28;19928;-75
2024/01/18 09:27:15;;;;;;;;;;;0.50;99.90;;;;;;5038708;28;20361;-76
2024/01/18 09:29:41;;;;;;;;;;;0.50;99.90;;;;;;5046616;28;20407;-76
2024/01/18 09:32:06;;;;;;;;;;;0.60;99.90;;;;;;5049646;28;19982;-76
2024/01/18 09:34:32;;;;;;;;;;;0.70;99.90;;;;;;5050571;28;20398;-77
2024/01/18 09:36:58;;;;;;;;;;;0.80;99.90;;;;;;5046124;28;19920;-76
2024/01/18 09:39:24;;;;;;;;;;;0.90;99.90;;;;;;5048860;28;20003;-76
2024/01/18 09:41:51;;;;;;;;;;;1.30;99.90;;;;;;5050284;28;20007;-76
2024/01/18 09:44:22;;;;;;;;;;;1.10;99.90;;;;;;5043265;28;20280;-75
2024/01/18 09:46:49;;;;;;;;;;;1.40;99.90;;;;;;5036935;28;19921;-76
2024/01/18 09:49:15;;;;;;;;;;;1.30;99.90;;;;;;5050538;28;19967;-77
2024/01/18 09:51:41;;;;;;;;;;;1.50;99.90;;;;;;5040209;28;19960;-78
2024/01/18 09:54:07;;;;;;;;;;;1.70;99.90;;;;;;5038100;28;19981;-79
2024/01/18 09:56:36;;;;;;;;;;;1.90;99.90;;;;;;5034437;28;20233;-76
2024/01/18 09:59:03;;;;;;;;;;;2.10;99.90;;;;;;5047674;28;19928;-75
2024/01/18 10:01:30;;;;;;;;;;;2.20;99.90;;;;;;5046591;28;19925;-79
2024/01/18 10:03:55;;;;;;;;;;;2.30;99.90;;;;;;5045590;28;19951;-78
2024/01/18 10:06:21;;;;;;;;;;;2.20;99.90;;;;;;5037739;28;19933;-74
2024/01/18 10:08:47;;;;;;;;;;;2.10;99.90;;;;;;5043674;28;19928;-76
2024/01/18 10:11:13;;;;;;;;;;;1.90;99.90;;;;;;5037789;28;19937;-79
2024/01/18 10:13:52;;;;;;;;;;;1.80;99.90;;;;;;5041337;28;19920;-77
2024/01/18 10:16:32;;;;;;;;;;;1.70;99.90;;;;;;5045907;28;20537;-77
2024/01/18 10:19:00;;;;;;;;;;;1.70;99.90;;;;;;5054151;28;19920;-78
2024/01/18 10:21:26;;;;;;;;;;;2.50;99.90;;;;;;5052968;28;19920;-79
2024/01/18 10:23:52;;;;;;;;;;;1.70;99.90;;;;;;5046252;28;19924;-80
2024/01/18 10:26:18;;;;;;;;;;;1.70;99.90;;;;;;5062691;28;19974;-78
2024/01/18 10:28:44;;;;;;;;;;;1.70;99.90;;;;;;5067354;28;20380;-75
2024/01/18 10:31:09;;;;;;;;;;;1.70;99.90;;;;;;5051068;28;19928;-76
2024/01/18 10:33:35;;;;;;;;;;;1.70;99.90;;;;;;5049412;28;19935;-77
2024/01/18 10:36:01;;;;;;;;;;;1.80;99.90;;;;;;5045616;28;19925;-78
2024/01/18 10:38:27;;;;;;;;;;;1.90;99.90;;;;;;5053071;28;19927;-77
2024/01/18 10:40:53;;;;;;;;;;;2.00;99.90;;;;;;5069338;28;19973;-77
2024/01/18 10:43:18;;;;;;;;;;;2.20;99.90;;;;;;5066716;28;20006;-77
2024/01/18 10:45:45;;;;;;;;;;;2.40;99.90;;;;;;5049507;28;19964;-77
2024/01/18 10:48:10;;;;;;;;;;;2.50;99.90;;;;;;5046670;28;19920;-79
2024/01/18 10:50:36;;;;;;;;;;;2.70;99.90;;;;;;5038004;28;19976;-81
2024/01/18 10:53:02;;;;;;;;;;;4.10;99.90;;;;;;5082111;28;20261;-80
2024/01/18 10:55:29;;;;;;;;;;;2.70;99.90;;;;;;5052242;28;19920;-75
2024/01/18 10:57:55;;;;;;;;;;;2.60;99.90;;;;;;5050134;28;19924;-75
2024/01/18 11:00:21;;;;;;;;;;;2.60;99.90;;;;;;5040560;28;19931;-74
2024/01/18 11:02:47;;;;;;;;;;;2.50;99.90;;;;;;5045484;28;19926;-74
2024/01/18 11:05:13;;;;;;;;;;;2.50;99.90;;;;;;5045550;28;19921;-76
2024/01/18 11:07:39;;;;;;;;;;;4.00;99.90;;;;;;5069313;28;20395;-75
2024/01/18 11:10:06;;;;;;;;;;;2.60;99.90;;;;;;5047902;28;19924;-76
2024/01/18 11:12:34;;;;;;;;;;;2.50;99.90;;;;;;5048799;28;20299;-76
2024/01/18 11:15:01;;;;;;;;;;;2.50;99.90;;;;;;5048818;28;19921;-77
2024/01/18 11:17:27;;;;;;;;;;;2.40;99.90;;;;;;5048911;28;20291;-77
2024/01/18 11:19:55;;;;;;;;;;;2.30;99.90;;;;;;5044976;28;19931;-78
2024/01/18 11:22:24;;;;;;;;;;;2.60;99.90;;;;;;5065278;28;19920;-82
2024/01/18 11:24:50;;;;;;;;;;;2.60;99.90;;;;;;5044160;28;20379;-77
2024/01/18 11:27:19;;;;;;;;;;;3.30;99.90;;;;;;5048502;28;20152;-76
2024/01/18 11:29:49;;;;;;;;;;;3.60;99.90;;;;;;5046355;28;19924;-76
2024/01/18 11:32:18;;;;;;;;;;;3.60;99.90;;;;;;5044107;28;19924;-77
2024/01/18 11:34:50;;;;;;;;;;;3.50;99.90;;;;;;5042485;28;20278;-76
2024/01/18 11:37:16;;;;;;;;;;;3.40;99.90;;;;;;5042899;28;19951;-77
2024/01/18 11:39:48;;;;;;;;;;;3.30;99.90;;;;;;5037060;28;19932;-75
2024/01/18 11:42:20;;;;;;;;;;;3.20;99.90;;;;;;5057115;28;20030;-76
2024/01/18 11:45:07;;;;;;;;;;;3.20;99.90;;;;;;5065941;28;20474;-76
2024/01/18 11:47:34;;;;;;;;;;;3.20;99.90;;;;;;5048977;28;19931;-76
2024/01/18 11:50:07;;;;;;;;;;;3.10;99.90;;;;;;5052696;28;19924;-78
2024/01/18 11:52:33;;;;;;;;;;;3.10;99.90;;;;;;5053796;28;19963;-78
2024/01/18 11:54:59;;;;;;;;;;;3.10;99.90;;;;;;5058393;28;20425;-78
2024/01/18 11:57:26;;;;;;;;;;;3.20;99.90;;;;;;5052938;28;19928;-78
2024/01/18 11:59:53;;;;;;;;;;;3.20;99.90;;;;;;5048240;28;19951;-79
2024/01/18 12:02:19;;;;;;;;;;;3.90;99.90;;;;;;5059423;28;19928;-78
2024/01/18 12:04:45;;;;;;;;;;;3.60;99.90;;;;;;5061772;28;19926;-78
2024/01/18 12:07:11;;;;;;;;;;;4.00;99.90;;;;;;5063542;28;19956;-78
2024/01/18 12:09:37;;;;;;;;;;;4.80;99.90;;;;;;5049544;28;19920;-79
2024/01/18 12:12:04;;;;;;;;;;;6.20;99.90;;;;;;5051569;28;19973;-78
2024/01/18 12:14:29;;;;;;;;;;;7.00;99.90;;;;;;5041471;28;20411;-77
2024/01/18 12:16:55;;;;;;;;;;;8.60;99.90;;;;;;5044961;28;19925;-77
2024/01/18 12:19:31;;;;;;;;;;;10.00;99.90;;;;;;5046452;28;19937;-77
2024/01/18 12:21:57;;;;;;;;;;;11.40;99.90;;;;;;5050157;28;19920;-77
2024/01/18 12:24:22;;;;;;;;;;;12.90;99.90;;;;;;5054495;28;20003;-77
2024/01/18 12:26:48;;;;;;;;;;;13.90;99.90;;;;;;5050436;28;20027;-76
2024/01/18 12:29:14;;;;;;;;;;;14.20;99.90;;;;;;5050423;28;19966;-78
2024/01/18 12:31:39;;;;;;;;;;;14.00;99.90;;;;;;5049673;28;20523;-77
2024/01/18 12:34:06;;;;;;;;;;;13.40;99.90;;;;;;5053788;28;20019;-77
2024/01/18 12:36:32;;;;;;;;;;;12.60;99.90;;;;;;5052959;28;19977;-76
2024/01/18 12:38:57;;;;;;;;;;;11.90;99.90;;;;;;5055594;28;19925;-76
2024/01/18 12:41:23;;;;;;;;;;;11.70;99.90;;;;;;5049297;28;20396;-76
2024/01/18 12:43:49;;;;;;;;;;;12.10;99.90;;;;;;5051683;28;19928;-80
2024/01/18 12:46:14;;;;;;;;;;;12.50;99.90;;;;;;5045132;28;19974;-77
2024/01/18 12:48:40;;;;;;;;;;;12.00;99.90;;;;;;5046261;28;19960;-76
2024/01/18 12:51:06;;;;;;;;;;;11.20;99.90;;;;;;5044303;28;19920;-77
2024/01/18 12:53:31;;;;;;;;;;;10.40;99.90;;;;;;5059776;28;19924;-76
2024/01/18 12:55:57;;;;;;;;;;;9.90;99.90;;;;;;5045400;28;20350;-76
2024/01/18 12:58:22;;;;;;;;;;;10.40;99.90;;;;;;5064420;28;19998;-76
2024/01/18 13:00:51;;;;;;;;;;;11.00;99.90;;;;;;5049824;28;20013;-77
2024/01/18 13:03:16;;;;;;;;;;;11.20;99.90;;;;;;5050925;28;20386;-77
2024/01/18 13:05:43;;;;;;;;;;;10.80;99.90;;;;;;5051211;28;20101;-77
2024/01/18 13:08:09;;;;;;;;;;;;;;;;;;5064757;28;20512;-77
2024/01/18 13:10:34;;;;;;;;;;;;;;;;;;5045309;28;19928;-77
2024/01/18 13:13:00;;;;;;;;;;;;;;;;;;5045872;28;20019;-77
2024/01/18 13:15:26;;;;;;;;;;;7.60;99.90;;;;;;5059799;28;20127;-76
2024/01/18 13:17:52;;;;;;;;;;;7.30;99.90;;;;;;5050931;28;23073;-77
2024/01/18 13:20:17;;;;;;;;;;;6.80;99.90;;;;;;5057585;28;19965;-77
2024/01/18 13:22:43;;;;;;;;;;;6.40;99.90;;;;;;5038999;28;19959;-77
2024/01/18 13:25:08;;;;;;;;;;;5.50;99.90;;;;;;5042659;28;19924;-76
2024/01/18 13:27:34;;;;;;;;;;;5.80;99.90;;;;;;5044635;28;19924;-76
2024/01/18 13:29:59;;;;;;;;;;;6.50;99.90;;;;;;5063688;28;20003;-77
2024/01/18 13:32:25;;;;;;;;;;;5.40;99.90;;;;;;5063593;28;19916;-77
2024/01/18 13:34:51;;;;;;;;;;;4.90;99.90;;;;;;5047311;28;19928;-79
2024/01/18 13:37:16;;;;;;;;;;;5.40;99.90;;;;;;5066552;28;19920;-77
2024/01/18 13:39:42;;;;;;;;;;;5.20;99.90;;;;;;5045209;28;20122;-77
2024/01/18 13:42:07;;;;;;;;;;;4.40;99.90;;;;;;5030874;28;20005;-78
2024/01/18 13:44:33;;;;;;;;;;;3.90;99.90;;;;;;5041098;28;19920;-76
2024/01/18 13:46:58;;;;;;;;;;;4.20;99.90;;;;;;5045003;28;20421;-76
2024/01/18 13:49:24;;;;;;;;;;;4.10;99.90;;;;;;5050288;28;20499;-77
2024/01/18 13:51:50;;;;;;;;;;;4.00;99.90;;;;;;5047979;28;20148;-77
2024/01/18 13:54:16;;;;;;;;;;;3.90;99.90;;;;;;5047994;28;19924;-78
2024/01/18 13:56:42;;;;;;;;;;;3.80;99.90;;;;;;5047753;28;20398;-75
2024/01/18 13:59:07;;;;;;;;;;;3.70;99.90;;;;;;5050242;28;20486;-76
2024/01/18 14:01:33;;;;;;;;;;;5.20;99.90;;;;;;5046175;28;19928;-76
2024/01/18 14:03:58;;;;;;;;;;;3.50;99.90;;;;;;5050479;28;19931;-77
2024/01/18 14:06:25;;;;;;;;;;;3.50;99.90;;;;;;5052204;28;20383;-77
2024/01/18 14:08:50;;;;;;;;;;;4.00;99.90;;;;;;5052064;28;20034;-77
2024/01/18 14:11:16;;;;;;;;;;;3.70;99.90;;;;;;5047073;28;20385;-76
2024/01/18 14:13:43;;;;;;;;;;;3.40;99.90;;;;;;5047734;28;19920;-77
2024/01/18 14:16:08;;;;;;;;;;;3.40;99.90;;;;;;5044573;28;20467;-77
2024/01/18 14:18:35;;;;;;;;;;;3.50;99.90;;;;;;5068758;28;19920;-77